sensor_id;sensor_type;location;lat;lon;timestamp;pressure;altitude;pressure_sealevel;temperature;humidity
25238;BME280;13185;50.872;5.306;2024-01-25T00:00:17;102575.91;;;8.27;100.00
25238;BME280;13185;50.872;5.306;2024-01-25T00:02:43;102571.50;;;8.26;100.00
25238;BME280;13185;50.872;5.306;2024-01-25T00:05:08;102568.88;;;8.24;100.00
25238;BME280;13185;50.872;5.306;2024-01-25T00:07:34;102568.94;;;8.21;100.00
25238;BME280;13185;50.872;5.306;2024-01-25T00:10:00;102573.41;;;8.21;100.00
25238;BME280;13185;50.872;5.306;2024-01-25T00:12:26;102579.69;;;8.20;100.00
25238;BME280;13185;50.872;5.306;2024-01-25T00:14:52;102570.84;;;8.18;100.00
25238;BME280;13185;50.872;5.306;2024-01-25T00:17:18;102568.19;;;8.16;100.00
25238;BME280;13185;50.872;5.306;2024-01-25T00:19:43;102575.31;;;8.17;100.00
25238;BME280;13185;50.872;5.306;2024-01-25T00:22:09;102557.56;;;8.15;100.00
25238;BME280;13185;50.872;5.306;2024-01-25T00:24:34;102560.28;;;8.13;100.00
25238;BME280;13185;50.872;5.306;2024-01-25T00:27:02;102558.53;;;8.10;100.00
25238;BME280;13185;50.872;5.306;2024-01-25T00:29:30;102556.84;;;8.08;100.00
25238;BME280;13185;50.872;5.306;2024-01-25T00:31:55;102556.88;;;8.06;100.00
25238;BME280;13185;50.872;5.306;2024-01-25T00:34:22;102565.78;;;8.07;100.00
25238;BME280;13185;50.872;5.306;2024-01-25T00:36:47;102571.16;;;8.05;100.00
25238;BME280;13185;50.872;5.306;2024-01-25T00:39:13;102572.13;;;8.03;100.00
25238;BME280;13185;50.872;5.306;2024-01-25T00:41:40;102561.47;;;8.01;100.00
25238;BME280;13185;50.872;5.306;2024-01-25T00:44:08;102559.72;;;8.00;100.00
25238;BME280;13185;50.872;5.306;2024-01-25T00:46:34;102554.47;;;7.97;100.00
25238;BME280;13185;50.872;5.306;2024-01-25T00:48:59;102562.56;;;7.94;100.00
25238;BME280;13185;50.872;5.306;2024-01-25T00:51:25;102589.28;;;7.94;100.00
25238;BME280;13185;50.872;5.306;2024-01-25T00:53:51;102599.09;;;7.94;100.00
25238;BME280;13185;50.872;5.306;2024-01-25T00:56:17;102597.31;;;7.94;100.00
25238;BME280;13185;50.872;5.306;2024-01-25T00:58:43;102599.97;;;7.94;100.00
25238;BME280;13185;50.872;5.306;2024-01-25T01:01:09;102602.63;;;7.94;100.00
25238;BME280;13185;50.872;5.306;2024-01-25T01:03:36;102591.03;;;7.95;100.00
25238;BME280;13185;50.872;5.306;2024-01-25T01:06:02;102586.56;;;7.96;100.00
25238;BME280;13185;50.872;5.306;2024-01-25T01:08:28;102596.38;;;7.95;100.00
25238;BME280;13185;50.872;5.306;2024-01-25T01:10:53;102604.44;;;7.94;100.00
25238;BME280;13185;50.872;5.306;2024-01-25T01:13:19;102603.56;;;7.93;100.00
25238;BME280;13185;50.872;5.306;2024-01-25T01:15:44;102605.34;;;7.93;100.00
25238;BME280;13185;50.872;5.306;2024-01-25T01:18:10;102603.63;;;7.90;100.00
25238;BME280;13185;50.872;5.306;2024-01-25T01:20:35;102607.22;;;7.89;100.00
25238;BME280;13185;50.872;5.306;2024-01-25T01:23:01;102602.78;;;7.88;100.00
25238;BME280;13185;50.872;5.306;2024-01-25T01:25:26;102609.19;;;7.82;100.00
25238;BME280;13185;50.872;5.306;2024-01-25T01:27:52;102599.44;;;7.80;100.00
25238;BME280;13185;50.872;5.306;2024-01-25T01:30:17;102613.75;;;7.77;100.00
25238;BME280;13185;50.872;5.306;2024-01-25T01:32:43;102620.94;;;7.75;100.00
25238;BME280;13185;50.872;5.306;2024-01-25T01:35:08;102608.59;;;7.71;100.00
25238;BME280;13185;50.872;5.306;2024-01-25T01:37:34;102599.75;;;7.68;100.00
25238;BME280;13185;50.872;5.306;2024-01-25T01:39:59;102613.22;;;7.63;100.00
25238;BME280;13185;50.872;5.306;2024-01-25T01:42:27;102616.00;;;7.59;100.00
25238;BME280;13185;50.872;5.306;2024-01-25T01:44:53;102616.03;;;7.57;100.00
25238;BME280;13185;50.872;5.306;2024-01-25T01:47:19;102609.84;;;7.55;100.00
25238;BME280;13185;50.872;5.306;2024-01-25T01:49:44;102617.94;;;7.52;100.00
25238;BME280;13185;50.872;5.306;2024-01-25T01:52:11;102618.00;;;7.49;100.00
25238;BME280;13185;50.872;5.306;2024-01-25T01:54:37;102618.97;;;7.46;100.00
25238;BME280;13185;50.872;5.306;2024-01-25T01:57:03;102597.66;;;7.45;100.00
25238;BME280;13185;50.872;5.306;2024-01-25T01:59:29;102599.53;;;7.41;100.00
25238;BME280;13185;50.872;5.306;2024-01-25T02:01:55;102604.94;;;7.37;100.00
25238;BME280;13185;50.872;5.306;2024-01-25T02:04:21;102610.38;;;7.34;100.00
25238;BME280;13185;50.872;5.306;2024-01-25T02:06:46;102596.25;;;7.30;100.00
25238;BME280;13185;50.872;5.306;2024-01-25T02:09:13;102596.25;;;7.29;100.00
25238;BME280;13185;50.872;5.306;2024-01-25T02:11:38;102594.53;;;7.26;100.00
25238;BME280;13185;50.872;5.306;2024-01-25T02:14:04;102605.22;;;7.26;100.00
25238;BME280;13185;50.872;5.306;2024-01-25T02:16:30;102612.34;;;7.26;100.00
25238;BME280;13185;50.872;5.306;2024-01-25T02:18:55;102615.91;;;7.24;100.00
25238;BME280;13185;50.872;5.306;2024-01-25T02:21:23;102624.00;;;7.21;100.00
25238;BME280;13185;50.872;5.306;2024-01-25T02:23:50;102624.06;;;7.18;100.00
25238;BME280;13185;50.872;5.306;2024-01-25T02:26:15;102619.66;;;7.16;100.00
25238;BME280;13185;50.872;5.306;2024-01-25T02:28:41;102620.59;;;7.15;100.00
25238;BME280;13185;50.872;5.306;2024-01-25T02:31:06;102619.75;;;7.13;100.00
25238;BME280;13185;50.872;5.306;2024-01-25T02:33:32;102616.25;;;7.11;100.00
25238;BME280;13185;50.872;5.306;2024-01-25T02:35:57;102626.97;;;7.09;100.00
25238;BME280;13185;50.872;5.306;2024-01-25T02:38:23;102623.41;;;7.07;100.00
25238;BME280;13185;50.872;5.306;2024-01-25T02:40:49;102623.47;;;7.06;100.00
25238;BME280;13185;50.872;5.306;2024-01-25T02:43:14;102620.03;;;7.01;100.00
25238;BME280;13185;50.872;5.306;2024-01-25T02:45:40;102628.94;;;7.00;100.00
25238;BME280;13185;50.872;5.306;2024-01-25T02:48:05;102620.97;;;6.97;100.00
25238;BME280;13185;50.872;5.306;2024-01-25T02:50:31;102614.81;;;6.94;100.00
25238;BME280;13185;50.872;5.306;2024-01-25T02:52:57;102623.72;;;6.93;100.00
25238;BME280;13185;50.872;5.306;2024-01-25T02:55:23;102633.59;;;6.90;100.00
25238;BME280;13185;50.872;5.306;2024-01-25T02:57:49;102640.72;;;6.89;100.00
25238;BME280;13185;50.872;5.306;2024-01-25T03:00:15;102638.09;;;6.86;100.00
25238;BME280;13185;50.872;5.306;2024-01-25T03:02:40;102635.53;;;6.82;100.00
25238;BME280;13185;50.872;5.306;2024-01-25T03:05:06;102648.06;;;6.78;100.00
25238;BME280;13185;50.872;5.306;2024-01-25T03:07:32;102654.34;;;6.74;100.00
25238;BME280;13185;50.872;5.306;2024-01-25T03:09:57;102655.38;;;6.69;100.00
25238;BME280;13185;50.872;5.306;2024-01-25T03:12:23;102647.53;;;6.61;100.00
25238;BME280;13185;50.872;5.306;2024-01-25T03:14:48;102650.25;;;6.56;100.00
25238;BME280;13185;50.872;5.306;2024-01-25T03:17:14;102657.59;;;6.47;100.00
25238;BME280;13185;50.872;5.306;2024-01-25T03:19:39;102667.44;;;6.42;100.00
25238;BME280;13185;50.872;5.306;2024-01-25T03:22:05;102656.00;;;6.36;100.00
25238;BME280;13185;50.872;5.306;2024-01-25T03:24:30;102653.47;;;6.29;100.00
25238;BME280;13185;50.872;5.306;2024-01-25T03:26:56;102658.88;;;6.24;100.00
25238;BME280;13185;50.872;5.306;2024-01-25T03:29:21;102661.63;;;6.20;100.00
25238;BME280;13185;50.872;5.306;2024-01-25T03:31:47;102668.81;;;6.15;100.00
25238;BME280;13185;50.872;5.306;2024-01-25T03:34:12;102666.28;;;6.08;100.00
25238;BME280;13185;50.872;5.306;2024-01-25T03:36:38;102670.78;;;6.03;100.00
25238;BME280;13185;50.872;5.306;2024-01-25T03:39:05;102666.47;;;5.98;100.00
25238;BME280;13185;50.872;5.306;2024-01-25T03:41:30;102664.72;;;5.94;100.00
25238;BME280;13185;50.872;5.306;2024-01-25T03:43:56;102663.97;;;5.86;100.00
25238;BME280;13185;50.872;5.306;2024-01-25T03:46:21;102664.00;;;5.83;100.00
25238;BME280;13185;50.872;5.306;2024-01-25T03:48:47;102666.78;;;5.76;100.00
25238;BME280;13185;50.872;5.306;2024-01-25T03:51:12;102668.66;;;5.70;100.00
25238;BME280;13185;50.872;5.306;2024-01-25T03:53:38;102666.94;;;5.66;100.00
25238;BME280;13185;50.872;5.306;2024-01-25T03:56:10;102667.88;;;5.62;100.00
25238;BME280;13185;50.872;5.306;2024-01-25T03:58:36;102669.75;;;5.57;100.00
25238;BME280;13185;50.872;5.306;2024-01-25T04:01:02;102671.56;;;5.55;100.00
25238;BME280;13185;50.872;5.306;2024-01-25T04:03:28;102676.03;;;5.51;100.00
25238;BME280;13185;50.872;5.306;2024-01-25T04:05:53;102671.69;;;5.45;100.00
25238;BME280;13185;50.872;5.306;2024-01-25T04:08:19;102677.03;;;5.44;100.00
25238;BME280;13185;50.872;5.306;2024-01-25T04:10:44;102674.44;;;5.39;100.00
25238;BME280;13185;50.872;5.306;2024-01-25T04:13:10;102667.34;;;5.38;100.00
25238;BME280;13185;50.872;5.306;2024-01-25T04:15:35;102666.47;;;5.38;100.00
25238;BME280;13185;50.872;5.306;2024-01-25T04:18:01;102665.63;;;5.36;100.00
25238;BME280;13185;50.872;5.306;2024-01-25T04:20:26;102670.94;;;5.36;100.00
25238;BME280;13185;50.872;5.306;2024-01-25T04:22:52;102659.47;;;5.32;100.00
25238;BME280;13185;50.872;5.306;2024-01-25T04:25:18;102666.56;;;5.33;100.00
25238;BME280;13185;50.872;5.306;2024-01-25T04:27:43;102656.81;;;5.31;100.00
25238;BME280;13185;50.872;5.306;2024-01-25T04:30:09;102661.25;;;5.30;100.00
25238;BME280;13185;50.872;5.306;2024-01-25T04:32:35;102660.44;;;5.25;100.00
25238;BME280;13185;50.872;5.306;2024-01-25T04:35:01;102668.47;;;5.20;100.00
25238;BME280;13185;50.872;5.306;2024-01-25T04:37:26;102664.13;;;5.16;100.00
25238;BME280;13185;50.872;5.306;2024-01-25T04:39:52;102649.06;;;5.15;100.00
25238;BME280;13185;50.872;5.306;2024-01-25T04:42:17;102645.53;;;5.15;100.00
25238;BME280;13185;50.872;5.306;2024-01-25T04:44:43;102652.66;;;5.13;100.00
25238;BME280;13185;50.872;5.306;2024-01-25T04:47:09;102660.66;;;5.10;100.00
25238;BME280;13185;50.872;5.306;2024-01-25T04:49:35;102664.22;;;5.09;100.00
25238;BME280;13185;50.872;5.306;2024-01-25T04:52:00;102661.56;;;5.07;100.00
25238;BME280;13185;50.872;5.306;2024-01-25T04:54:26;102657.16;;;5.06;100.00
25238;BME280;13185;50.872;5.306;2024-01-25T04:56:52;102648.31;;;5.06;100.00
25238;BME280;13185;50.872;5.306;2024-01-25T04:59:18;102641.19;;;5.06;100.00
25238;BME280;13185;50.872;5.306;2024-01-25T05:01:43;102629.72;;;5.04;100.00
25238;BME280;13185;50.872;5.306;2024-01-25T05:04:09;102650.13;;;5.02;100.00
25238;BME280;13185;50.872;5.306;2024-01-25T05:06:34;102649.28;;;4.99;100.00
25238;BME280;13185;50.872;5.306;2024-01-25T05:09:00;102662.66;;;4.94;100.00
25238;BME280;13185;50.872;5.306;2024-01-25T05:11:26;102659.16;;;4.89;100.00
25238;BME280;13185;50.872;5.306;2024-01-25T05:13:51;102655.63;;;4.87;100.00
25238;BME280;13185;50.872;5.306;2024-01-25T05:16:17;102667.19;;;4.84;100.00
25238;BME280;13185;50.872;5.306;2024-01-25T05:18:42;102657.50;;;4.80;100.00
25238;BME280;13185;50.872;5.306;2024-01-25T05:21:08;102652.22;;;4.77;100.00
25238;BME280;13185;50.872;5.306;2024-01-25T05:23:33;102649.59;;;4.74;100.00
25238;BME280;13185;50.872;5.306;2024-01-25T05:25:59;102643.41;;;4.74;100.00
25238;BME280;13185;50.872;5.306;2024-01-25T05:28:24;102647.88;;;4.72;100.00
25238;BME280;13185;50.872;5.306;2024-01-25T05:30:50;102643.44;;;4.72;100.00
25238;BME280;13185;50.872;5.306;2024-01-25T05:33:16;102654.09;;;4.69;100.00
25238;BME280;13185;50.872;5.306;2024-01-25T05:35:41;102658.50;;;4.69;100.00
25238;BME280;13185;50.872;5.306;2024-01-25T05:38:07;102656.78;;;4.66;100.00
25238;BME280;13185;50.872;5.306;2024-01-25T05:40:32;102650.59;;;4.64;100.00
25238;BME280;13185;50.872;5.306;2024-01-25T05:42:59;102651.53;;;4.61;100.00
25238;BME280;13185;50.872;5.306;2024-01-25T05:45:25;102654.19;;;4.60;100.00
25238;BME280;13185;50.872;5.306;2024-01-25T05:47:51;102654.25;;;4.55;100.00
25238;BME280;13185;50.872;5.306;2024-01-25T05:50:18;102646.25;;;4.55;100.00
25238;BME280;13185;50.872;5.306;2024-01-25T05:52:43;102640.94;;;4.57;100.00
25238;BME280;13185;50.872;5.306;2024-01-25T05:55:09;102637.38;;;4.61;100.00
25238;BME280;13185;50.872;5.306;2024-01-25T05:57:36;102650.63;;;4.62;100.00
25238;BME280;13185;50.872;5.306;2024-01-25T06:00:02;102655.94;;;4.62;100.00
25238;BME280;13185;50.872;5.306;2024-01-25T06:02:33;102651.53;;;4.58;100.00
25238;BME280;13185;50.872;5.306;2024-01-25T06:04:59;102652.47;;;4.56;100.00
25238;BME280;13185;50.872;5.306;2024-01-25T06:07:26;102660.47;;;4.53;100.00
25238;BME280;13185;50.872;5.306;2024-01-25T06:09:51;102665.84;;;4.48;100.00
25238;BME280;13185;50.872;5.306;2024-01-25T06:12:17;102669.41;;;4.44;100.00
25238;BME280;13185;50.872;5.306;2024-01-25T06:14:42;102659.72;;;4.42;100.00
25238;BME280;13185;50.872;5.306;2024-01-25T06:17:08;102664.16;;;4.40;100.00
25238;BME280;13185;50.872;5.306;2024-01-25T06:19:33;102670.38;;;4.37;100.00
25238;BME280;13185;50.872;5.306;2024-01-25T06:22:00;102665.06;;;4.35;100.00
25238;BME280;13185;50.872;5.306;2024-01-25T06:24:26;102668.59;;;4.38;100.00
25238;BME280;13185;50.872;5.306;2024-01-25T06:26:52;102673.91;;;4.38;100.00
25238;BME280;13185;50.872;5.306;2024-01-25T06:29:18;102671.25;;;4.38;100.00
25238;BME280;13185;50.872;5.306;2024-01-25T06:31:44;102673.94;;;4.36;100.00
25238;BME280;13185;50.872;5.306;2024-01-25T06:34:09;102672.16;;;4.35;100.00
25238;BME280;13185;50.872;5.306;2024-01-25T06:36:35;102679.28;;;4.33;100.00
25238;BME280;13185;50.872;5.306;2024-01-25T06:39:01;102680.19;;;4.30;100.00
25238;BME280;13185;50.872;5.306;2024-01-25T06:41:26;102677.56;;;4.29;100.00
25238;BME280;13185;50.872;5.306;2024-01-25T06:43:51;102674.91;;;4.29;100.00
25238;BME280;13185;50.872;5.306;2024-01-25T06:46:17;102679.31;;;4.30;100.00
25238;BME280;13185;50.872;5.306;2024-01-25T06:48:43;102673.16;;;4.28;100.00
25238;BME280;13185;50.872;5.306;2024-01-25T06:51:08;102683.78;;;4.28;100.00
25238;BME280;13185;50.872;5.306;2024-01-25T06:53:34;102689.06;;;4.26;100.00
25238;BME280;13185;50.872;5.306;2024-01-25T06:55:59;102688.19;;;4.26;100.00
25238;BME280;13185;50.872;5.306;2024-01-25T06:58:25;102680.22;;;4.29;100.00
25238;BME280;13185;50.872;5.306;2024-01-25T07:00:50;102676.66;;;4.30;100.00
25238;BME280;13185;50.872;5.306;2024-01-25T07:03:18;102688.19;;;4.29;100.00
25238;BME280;13185;50.872;5.306;2024-01-25T07:05:44;102689.94;;;4.30;100.00
25238;BME280;13185;50.872;5.306;2024-01-25T07:08:09;102695.28;;;4.28;100.00
25238;BME280;13185;50.872;5.306;2024-01-25T07:10:39;102689.94;;;4.27;100.00
25238;BME280;13185;50.872;5.306;2024-01-25T07:13:05;102684.63;;;4.27;100.00
25238;BME280;13185;50.872;5.306;2024-01-25T07:15:30;102686.44;;;4.28;100.00
25238;BME280;13185;50.872;5.306;2024-01-25T07:17:56;102681.13;;;4.28;100.00
25238;BME280;13185;50.872;5.306;2024-01-25T07:20:21;102687.31;;;4.28;100.00
25238;BME280;13185;50.872;5.306;2024-01-25T07:22:47;102690.84;;;4.29;100.00
25238;BME280;13185;50.872;5.306;2024-01-25T07:25:12;102684.63;;;4.30;100.00
25238;BME280;13185;50.872;5.306;2024-01-25T07:27:38;102680.16;;;4.33;100.00
25238;BME280;13185;50.872;5.306;2024-01-25T07:30:04;102677.47;;;4.35;100.00
25238;BME280;13185;50.872;5.306;2024-01-25T07:32:30;102681.91;;;4.36;100.00
25238;BME280;13185;50.872;5.306;2024-01-25T07:34:57;102694.28;;;4.37;100.00
25238;BME280;13185;50.872;5.306;2024-01-25T07:37:23;102701.38;;;4.37;100.00
25238;BME280;13185;50.872;5.306;2024-01-25T07:39:48;102700.50;;;4.36;100.00
25238;BME280;13185;50.872;5.306;2024-01-25T07:42:14;102704.03;;;4.35;100.00
25238;BME280;13185;50.872;5.306;2024-01-25T07:44:39;102692.50;;;4.38;100.00
25238;BME280;13185;50.872;5.306;2024-01-25T07:47:05;102691.63;;;4.40;100.00
25238;BME280;13185;50.872;5.306;2024-01-25T07:49:30;102681.00;;;4.39;100.00
25238;BME280;13185;50.872;5.306;2024-01-25T07:51:56;102687.19;;;4.39;100.00
25238;BME280;13185;50.872;5.306;2024-01-25T07:54:22;102701.31;;;4.43;100.00
25238;BME280;13185;50.872;5.306;2024-01-25T07:56:48;102703.09;;;4.42;100.00
25238;BME280;13185;50.872;5.306;2024-01-25T07:59:13;102703.97;;;4.43;100.00
25238;BME280;13185;50.872;5.306;2024-01-25T08:01:39;102703.06;;;4.44;100.00
25238;BME280;13185;50.872;5.306;2024-01-25T08:04:04;102690.69;;;4.43;100.00
25238;BME280;13185;50.872;5.306;2024-01-25T08:06:30;102696.88;;;4.43;100.00
25238;BME280;13185;50.872;5.306;2024-01-25T08:08:55;102690.69;;;4.43;100.00
25238;BME280;13185;50.872;5.306;2024-01-25T08:11:21;102695.13;;;4.42;100.00
25238;BME280;13185;50.872;5.306;2024-01-25T08:13:46;102695.16;;;4.41;100.00
25238;BME280;13185;50.872;5.306;2024-01-25T08:16:13;102696.91;;;4.42;100.00
25238;BME280;13185;50.872;5.306;2024-01-25T08:18:39;102699.53;;;4.45;100.00
25238;BME280;13185;50.872;5.306;2024-01-25T08:21:05;102685.34;;;4.49;100.00
25238;BME280;13185;50.872;5.306;2024-01-25T08:23:31;102689.69;;;4.54;100.00
25238;BME280;13185;50.872;5.306;2024-01-25T08:25:56;102702.00;;;4.63;100.00
25238;BME280;13185;50.872;5.306;2024-01-25T08:28:22;102694.81;;;4.71;100.00
25238;BME280;13185;50.872;5.306;2024-01-25T08:30:47;102690.31;;;4.76;100.00
25238;BME280;13185;50.872;5.306;2024-01-25T08:33:13;102705.34;;;4.80;100.00
25238;BME280;13185;50.872;5.306;2024-01-25T08:35:38;102704.38;;;4.86;100.00
25238;BME280;13185;50.872;5.306;2024-01-25T08:38:06;102699.94;;;4.88;100.00
25238;BME280;13185;50.872;5.306;2024-01-25T08:40:32;102693.66;;;4.95;100.00
25238;BME280;13185;50.872;5.306;2024-01-25T08:42:58;102688.28;;;4.98;100.00
25238;BME280;13185;50.872;5.306;2024-01-25T08:45:24;102693.56;;;5.03;100.00
25238;BME280;13185;50.872;5.306;2024-01-25T08:47:49;102689.94;;;5.07;100.00
25238;BME280;13185;50.872;5.306;2024-01-25T08:50:16;102695.22;;;5.11;100.00
25238;BME280;13185;50.872;5.306;2024-01-25T08:52:42;102694.28;;;5.15;100.00
25238;BME280;13185;50.872;5.306;2024-01-25T08:55:08;102703.97;;;5.19;100.00
25238;BME280;13185;50.872;5.306;2024-01-25T08:57:35;102698.66;;;5.18;100.00
25238;BME280;13185;50.872;5.306;2024-01-25T09:00:00;102701.31;;;5.19;100.00
25238;BME280;13185;50.872;5.306;2024-01-25T09:02:26;102701.31;;;5.19;100.00
25238;BME280;13185;50.872;5.306;2024-01-25T09:04:54;102698.63;;;5.22;100.00
25238;BME280;13185;50.872;5.306;2024-01-25T09:07:20;102692.34;;;5.27;100.00
25238;BME280;13185;50.872;5.306;2024-01-25T09:09:45;102702.94;;;5.30;100.00
25238;BME280;13185;50.872;5.306;2024-01-25T09:12:11;102718.00;;;5.32;100.00
25238;BME280;13185;50.872;5.306;2024-01-25T09:14:38;102717.09;;;5.33;100.00
25238;BME280;13185;50.872;5.306;2024-01-25T09:17:04;102719.75;;;5.33;100.00
25238;BME280;13185;50.872;5.306;2024-01-25T09:19:30;102723.22;;;5.38;100.00
25238;BME280;13185;50.872;5.306;2024-01-25T09:21:56;102716.94;;;5.45;100.00
25238;BME280;13185;50.872;5.306;2024-01-25T09:24:25;102715.03;;;5.52;100.00
25238;BME280;13185;50.872;5.306;2024-01-25T09:26:50;102715.84;;;5.59;100.00
25238;BME280;13185;50.872;5.306;2024-01-25T09:29:16;102709.59;;;5.61;100.00
25238;BME280;13185;50.872;5.306;2024-01-25T09:31:41;102706.94;;;5.63;100.00
25238;BME280;13185;50.872;5.306;2024-01-25T09:34:07;102711.31;;;5.65;100.00
25238;BME280;13185;50.872;5.306;2024-01-25T09:36:32;102714.00;;;5.62;100.00
25238;BME280;13185;50.872;5.306;2024-01-25T09:38:58;102713.13;;;5.62;100.00
25238;BME280;13185;50.872;5.306;2024-01-25T09:41:23;102714.00;;;5.62;100.00
25238;BME280;13185;50.872;5.306;2024-01-25T09:43:49;102717.56;;;5.64;100.00
25238;BME280;13185;50.872;5.306;2024-01-25T09:46:15;102718.31;;;5.71;100.00
25238;BME280;13185;50.872;5.306;2024-01-25T09:48:42;102711.19;;;5.74;100.00
25238;BME280;13185;50.872;5.306;2024-01-25T09:51:11;102712.03;;;5.76;100.00
25238;BME280;13185;50.872;5.306;2024-01-25T09:53:39;102721.69;;;5.82;100.00
25238;BME280;13185;50.872;5.306;2024-01-25T09:56:08;102715.47;;;5.85;100.00
25238;BME280;13185;50.872;5.306;2024-01-25T09:58:42;102722.50;;;5.90;100.00
25238;BME280;13185;50.872;5.306;2024-01-25T10:01:11;102713.56;;;5.94;100.00
25238;BME280;13185;50.872;5.306;2024-01-25T10:03:47;102713.50;;;5.99;100.00
25238;BME280;13185;50.872;5.306;2024-01-25T10:06:13;102707.19;;;6.04;100.00
25238;BME280;13185;50.872;5.306;2024-01-25T10:08:39;102705.28;;;6.11;100.00
25238;BME280;13185;50.872;5.306;2024-01-25T10:11:05;102699.03;;;6.15;100.00
25238;BME280;13185;50.872;5.306;2024-01-25T10:13:31;102692.69;;;6.21;100.00
25238;BME280;13185;50.872;5.306;2024-01-25T10:15:57;102699.75;;;6.23;100.00
25238;BME280;13185;50.872;5.306;2024-01-25T10:18:25;102697.00;;;6.28;100.00
25238;BME280;13185;50.872;5.306;2024-01-25T10:20:53;102699.59;;;6.32;100.00
25238;BME280;13185;50.872;5.306;2024-01-25T10:23:18;102703.97;;;6.35;100.00
25238;BME280;13185;50.872;5.306;2024-01-25T10:25:44;102706.56;;;6.40;100.00
25238;BME280;13185;50.872;5.306;2024-01-25T10:28:10;102694.94;;;6.44;100.00
25238;BME280;13185;50.872;5.306;2024-01-25T10:30:38;102698.50;;;6.43;100.00
25238;BME280;13185;50.872;5.306;2024-01-25T10:33:04;102697.56;;;6.47;100.00
25238;BME280;13185;50.872;5.306;2024-01-25T10:35:31;102697.47;;;6.51;100.00
25238;BME280;13185;50.872;5.306;2024-01-25T10:37:56;102690.31;;;6.53;100.00
25238;BME280;13185;50.872;5.306;2024-01-25T10:40:22;102685.88;;;6.54;100.00
25238;BME280;13185;50.872;5.306;2024-01-25T10:42:48;102676.91;;;6.56;100.00
25238;BME280;13185;50.872;5.306;2024-01-25T10:45:14;102669.69;;;6.63;100.00
25238;BME280;13185;50.872;5.306;2024-01-25T10:47:40;102668.72;;;6.69;100.00
25238;BME280;13185;50.872;5.306;2024-01-25T10:50:12;102667.69;;;6.74;100.00
25238;BME280;13185;50.872;5.306;2024-01-25T10:52:40;102662.25;;;6.80;100.00
25238;BME280;13185;50.872;5.306;2024-01-25T10:55:07;102657.69;;;6.85;100.00
25238;BME280;13185;50.872;5.306;2024-01-25T10:57:42;102661.03;;;6.95;100.00
25238;BME280;13185;50.872;5.306;2024-01-25T11:00:13;102656.38;;;7.05;100.00
25238;BME280;13185;50.872;5.306;2024-01-25T11:02:40;102645.59;;;7.11;100.00
25238;BME280;13185;50.872;5.306;2024-01-25T11:05:16;102648.16;;;7.15;100.00
25238;BME280;13185;50.872;5.306;2024-01-25T11:07:44;102640.84;;;7.23;100.00
25238;BME280;13185;50.872;5.306;2024-01-25T11:10:19;102629.19;;;7.28;100.00
25238;BME280;13185;50.872;5.306;2024-01-25T11:13:01;102626.34;;;7.35;100.00
25238;BME280;13185;50.872;5.306;2024-01-25T11:15:36;102609.28;;;7.42;100.00
25238;BME280;13185;50.872;5.306;2024-01-25T11:18:02;102605.69;;;7.43;100.00
25238;BME280;13185;50.872;5.306;2024-01-25T11:20:29;102600.28;;;7.46;100.00
25238;BME280;13185;50.872;5.306;2024-01-25T11:23:00;102603.69;;;7.53;100.00
25238;BME280;13185;50.872;5.306;2024-01-25T11:25:36;102593.72;;;7.60;100.00
25238;BME280;13185;50.872;5.306;2024-01-25T11:28:04;102596.19;;;7.67;100.00
25238;BME280;13185;50.872;5.306;2024-01-25T11:30:32;102593.44;;;7.70;100.00
25238;BME280;13185;50.872;5.306;2024-01-25T11:32:58;102579.13;;;7.74;100.00
25238;BME280;13185;50.872;5.306;2024-01-25T11:35:24;102570.03;;;7.80;100.00
25238;BME280;13185;50.872;5.306;2024-01-25T11:37:50;102547.66;;;7.86;100.00
25238;BME280;13185;50.872;5.306;2024-01-25T11:40:18;102544.03;;;7.88;100.00
25238;BME280;13185;50.872;5.306;2024-01-25T11:42:47;102551.00;;;7.94;100.00
25238;BME280;13185;50.872;5.306;2024-01-25T11:45:13;102552.63;;;7.99;100.00
25238;BME280;13185;50.872;5.306;2024-01-25T11:47:40;102543.63;;;8.03;100.00
25238;BME280;13185;50.872;5.306;2024-01-25T11:50:09;102540.81;;;8.08;100.00
25238;BME280;13185;50.872;5.306;2024-01-25T11:52:35;102540.66;;;8.14;100.00
25238;BME280;13185;50.872;5.306;2024-01-25T11:55:02;102539.63;;;8.18;100.00
25238;BME280;13185;50.872;5.306;2024-01-25T11:57:30;102539.53;;;8.21;100.00
25238;BME280;13185;50.872;5.306;2024-01-25T11:59:57;102534.84;;;8.29;100.00
25238;BME280;13185;50.872;5.306;2024-01-25T12:02:23;102532.94;;;8.36;100.00
25238;BME280;13185;50.872;5.306;2024-01-25T12:04:49;102528.31;;;8.41;100.00
25238;BME280;13185;50.872;5.306;2024-01-25T12:07:15;102529.00;;;8.48;100.00
25238;BME280;13185;50.872;5.306;2024-01-25T12:09:41;102530.59;;;8.55;100.00
25238;BME280;13185;50.872;5.306;2024-01-25T12:12:09;102519.91;;;8.55;100.00
25238;BME280;13185;50.872;5.306;2024-01-25T12:14:36;102526.94;;;8.57;100.00
25238;BME280;13185;50.872;5.306;2024-01-25T12:17:03;102518.81;;;8.60;100.00
25238;BME280;13185;50.872;5.306;2024-01-25T12:19:29;102523.13;;;8.66;100.00
25238;BME280;13185;50.872;5.306;2024-01-25T12:21:55;102504.25;;;8.71;100.00
25238;BME280;13185;50.872;5.306;2024-01-25T12:24:21;102509.50;;;8.74;100.00
25238;BME280;13185;50.872;5.306;2024-01-25T12:26:47;102504.78;;;8.82;100.00
25238;BME280;13185;50.872;5.306;2024-01-25T12:29:13;102499.38;;;8.83;100.00
25238;BME280;13185;50.872;5.306;2024-01-25T12:31:38;102496.63;;;8.86;100.00
25238;BME280;13185;50.872;5.306;2024-01-25T12:34:13;102504.59;;;8.88;100.00
25238;BME280;13185;50.872;5.306;2024-01-25T12:36:40;102497.25;;;8.94;100.00
25238;BME280;13185;50.872;5.306;2024-01-25T12:39:05;102485.53;;;8.99;100.00
25238;BME280;13185;50.872;5.306;2024-01-25T12:41:32;102489.91;;;9.01;100.00
25238;BME280;13185;50.872;5.306;2024-01-25T12:43:57;102481.00;;;9.01;100.00